createdAt,value
2023-03-14T00:02:01.599Z,100037.78
2023-03-14T00:04:35.823Z,100032.14
2023-03-14T00:07:08.379Z,100031.86
2023-03-14T00:09:40.698Z,100027.09
2023-03-14T00:12:14.720Z,100028.94
2023-03-14T00:14:47.417Z,100029.81
2023-03-14T00:17:20.785Z,100031.89
2023-03-14T00:19:55.030Z,100019.04
2023-03-14T00:22:28.759Z,100015.11
2023-03-14T00:25:01.334Z,100027.09
2023-03-14T00:27:33.983Z,100021.53
2023-03-14T00:30:09.154Z,100020.55
2023-03-14T00:32:43.265Z,100017.97
2023-03-14T00:35:16.113Z,100008.47
2023-03-14T00:37:48.520Z,99998.29
2023-03-14T00:40:20.916Z,100000.58
2023-03-14T00:42:53.712Z,99992.14
2023-03-14T00:45:26.385Z,99983.59
2023-03-14T00:47:58.758Z,99977.45
2023-03-14T00:50:31.672Z,99976.58
2023-03-14T00:53:04.816Z,99972.28
2023-03-14T00:55:43.443Z,99974.07
2023-03-14T00:58:18.253Z,99969.02
2023-03-14T01:00:51.219Z,99970.00
2023-03-14T01:03:25.262Z,99968.66
2023-03-14T01:06:01.537Z,99962.03
2023-03-14T01:08:34.208Z,99960.44
2023-03-14T01:11:11.857Z,99969.85
2023-03-14T01:13:45.782Z,99956.61
2023-03-14T01:16:19.007Z,99953.34
2023-03-14T01:18:52.104Z,99970.69
2023-03-14T01:21:28.625Z,99972.77
2023-03-14T01:24:02.181Z,99975.67
2023-03-14T01:26:36.246Z,99988.94
2023-03-14T01:29:08.983Z,99974.28
2023-03-14T01:31:42.889Z,99977.92
2023-03-14T01:34:16.163Z,99982.78
2023-03-14T01:36:48.897Z,99981.44
2023-03-14T01:39:21.855Z,99976.53
2023-03-14T01:41:54.824Z,99979.59
2023-03-14T01:44:27.977Z,99966.64
2023-03-14T01:47:00.517Z,99963.55
2023-03-14T01:49:37.240Z,99977.98
2023-03-14T01:52:16.313Z,99969.55
2023-03-14T01:54:58.228Z,99965.63
2023-03-14T01:57:58.761Z,99964.27
2023-03-14T02:00:31.362Z,99962.37
2023-03-14T02:03:09.313Z,99964.45
2023-03-14T02:05:44.209Z,99961.47
2023-03-14T02:08:22.553Z,99956.33
2023-03-14T02:11:02.489Z,99963.16
2023-03-14T02:13:46.757Z,99957.08
2023-03-14T02:16:19.566Z,99961.53
2023-03-14T02:19:02.985Z,99969.44
2023-03-14T02:22:06.528Z,99972.81
2023-03-14T02:24:54.604Z,99968.52
2023-03-14T02:27:27.562Z,99972.34
2023-03-14T02:30:19.486Z,99971.68
2023-03-14T02:33:07.629Z,99981.96
2023-03-14T02:35:47.828Z,99984.49
2023-03-14T02:38:38.073Z,99975.66
2023-03-14T02:41:11.527Z,99982.38
2023-03-14T02:43:47.178Z,99972.31
2023-03-14T02:46:23.598Z,99985.88
2023-03-14T02:49:02.297Z,99980.72
2023-03-14T02:51:36.765Z,99976.28
2023-03-14T02:54:10.757Z,99977.83
2023-03-14T02:56:43.606Z,99982.84
2023-03-14T02:59:18.352Z,99975.76
2023-03-14T03:01:52.388Z,99984.86
2023-03-14T03:04:24.725Z,99972.61
2023-03-14T03:06:57.570Z,99975.91
2023-03-14T03:09:30.752Z,99977.16
2023-03-14T03:12:03.247Z,99982.36
2023-03-14T03:14:38.740Z,99973.67
2023-03-14T03:17:11.290Z,99980.19
2023-03-14T03:19:43.771Z,99964.41
2023-03-14T03:22:16.277Z,99961.83
2023-03-14T03:24:49.073Z,99966.56
2023-03-14T03:27:21.406Z,99971.94
2023-03-14T03:29:54.149Z,99971.16
2023-03-14T03:32:27.036Z,99959.69
2023-03-14T03:35:00.309Z,99963.41
2023-03-14T03:37:34.449Z,99962.77
2023-03-14T03:40:08.834Z,99958.48
2023-03-14T03:42:41.549Z,99963.74
2023-03-14T03:45:15.073Z,99963.74
2023-03-14T03:47:49.944Z,99953.98
2023-03-14T03:50:22.589Z,99956.86
2023-03-14T03:52:54.970Z,99956.59
2023-03-14T03:55:29.143Z,99942.91
2023-03-14T03:58:01.579Z,99947.13
2023-03-14T04:00:34.373Z,99945.98
2023-03-14T04:03:06.720Z,99959.78
2023-03-14T04:05:40.857Z,99953.94
2023-03-14T04:08:15.719Z,99954.80
2023-03-14T04:10:50.367Z,99955.09
2023-03-14T04:13:24.755Z,99947.15
2023-03-14T04:15:59.498Z,99950.03
2023-03-14T04:18:33.819Z,99946.61
2023-03-14T04:21:06.907Z,99944.89
2023-03-14T04:23:40.917Z,99954.28
2023-03-14T04:26:14.604Z,99952.71
2023-03-14T04:28:47.209Z,99957.52
2023-03-14T04:31:22.468Z,99953.59
2023-03-14T04:33:55.889Z,99952.94
2023-03-14T04:36:33.042Z,99956.73
2023-03-14T04:39:07.242Z,99945.69
2023-03-14T04:41:42.223Z,99937.30
2023-03-14T04:44:15.907Z,99939.98
2023-03-14T04:46:48.992Z,99927.09
2023-03-14T04:49:22.791Z,99927.63
2023-03-14T04:51:56.108Z,99921.55
2023-03-14T04:54:30.498Z,99922.33
2023-03-14T04:57:05.588Z,99902.02
2023-03-14T04:59:40.756Z,99911.61
2023-03-14T05:02:15.507Z,99915.79
2023-03-14T05:04:49.775Z,99911.89
2023-03-14T05:07:42.268Z,99914.66
2023-03-14T05:10:16.434Z,99917.03
2023-03-14T05:12:50.884Z,99918.48
2023-03-14T05:15:25.361Z,99911.20
2023-03-14T05:17:57.736Z,99913.97
2023-03-14T05:20:33.590Z,99912.27
2023-03-14T05:23:19.612Z,99909.22
2023-03-14T05:26:09.978Z,99928.34
2023-03-14T05:28:47.499Z,99934.06
2023-03-14T05:31:21.847Z,99929.62
2023-03-14T05:33:59.038Z,99927.86
2023-03-14T05:36:51.809Z,99923.84
2023-03-14T05:39:55.494Z,99931.27
2023-03-14T05:42:47.856Z,99923.94
2023-03-14T05:45:21.937Z,99920.64
2023-03-14T05:47:56.163Z,99933.28
2023-03-14T05:50:30.413Z,99935.70
2023-03-14T05:53:16.506Z,99950.36
2023-03-14T05:55:58.262Z,99958.88
2023-03-14T05:58:33.584Z,99965.66
2023-03-14T06:01:08.632Z,99966.41
2023-03-14T06:03:42.787Z,99966.74
2023-03-14T06:06:15.490Z,99966.02
2023-03-14T06:08:48.530Z,99956.54
2023-03-14T06:11:21.747Z,99963.40
2023-03-14T06:13:54.773Z,99948.33
2023-03-14T06:16:27.234Z,99962.45
2023-03-14T06:19:00.219Z,99962.45
2023-03-14T06:21:34.566Z,99950.70
2023-03-14T06:24:07.496Z,99961.58
2023-03-14T06:26:40.975Z,99955.07
2023-03-14T06:29:14.698Z,99955.94
2023-03-14T06:31:48.160Z,99962.80
2023-03-14T06:34:21.548Z,99958.47
2023-03-14T06:36:54.065Z,99939.59
2023-03-14T06:39:26.430Z,99932.97
2023-03-14T06:42:00.935Z,99934.78
2023-03-14T06:44:33.913Z,99932.55
2023-03-14T06:47:06.512Z,99924.75
2023-03-14T06:49:40.546Z,99922.06
2023-03-14T06:52:14.043Z,99919.00
2023-03-14T06:54:46.979Z,99932.37
2023-03-14T06:57:19.948Z,99908.11
2023-03-14T06:59:53.273Z,99892.52
2023-03-14T07:02:39.771Z,99919.38
2023-03-14T07:05:00.153Z,99884.31
2023-03-14T07:07:32.877Z,99877.33
2023-03-14T07:10:06.777Z,99880.02
2023-03-14T07:12:40.832Z,99893.66
2023-03-14T07:15:19.056Z,99879.81
2023-03-14T07:17:49.822Z,99882.25
2023-03-14T07:20:24.513Z,99874.87
2023-03-14T07:22:57.459Z,99882.13
2023-03-14T07:25:37.924Z,99883.77
2023-03-14T07:28:11.928Z,99883.06
2023-03-14T07:30:47.979Z,99886.00
2023-03-14T07:33:25.581Z,99885.08
2023-03-14T07:35:58.324Z,99887.09
2023-03-14T07:38:30.980Z,99889.53
2023-03-14T07:41:07.143Z,99879.31
2023-03-14T07:43:48.863Z,99874.98
2023-03-14T07:46:22.808Z,99863.18
2023-03-14T07:48:55.704Z,99870.55
2023-03-14T07:51:29.162Z,99882.22
2023-03-14T07:54:02.179Z,99866.11
2023-03-14T07:56:34.739Z,99857.23
2023-03-14T07:59:07.270Z,99886.98
2023-03-14T08:01:39.753Z,99869.51
2023-03-14T08:04:13.105Z,99859.18
2023-03-14T08:06:45.943Z,99889.17
2023-03-14T08:09:18.394Z,99846.38
2023-03-14T08:11:51.503Z,99864.49
2023-03-14T08:14:25.841Z,99843.45
2023-03-14T08:17:00.102Z,99842.20
2023-03-14T08:19:33.333Z,99851.47
2023-03-14T08:22:05.912Z,99838.31
2023-03-14T08:24:38.731Z,99848.69
2023-03-14T08:27:11.541Z,99853.54
2023-03-14T08:29:44.882Z,99850.39
2023-03-14T08:32:17.495Z,99849.19
2023-03-14T08:34:50.106Z,99865.01
2023-03-14T08:37:26.693Z,99837.42
2023-03-14T08:39:57.312Z,99834.28
2023-03-14T08:42:32.229Z,99846.77
2023-03-14T08:45:06.495Z,99829.11
2023-03-14T08:47:39.523Z,99825.94
2023-03-14T08:50:16.196Z,99835.14
2023-03-14T08:52:48.822Z,99835.63
2023-03-14T08:55:21.884Z,99837.50
2023-03-14T08:57:54.658Z,99844.82
2023-03-14T09:00:28.025Z,99835.44
2023-03-14T09:03:00.590Z,99823.20
2023-03-14T09:05:37.786Z,99796.89
2023-03-14T09:08:11.943Z,99800.85
2023-03-14T09:10:44.566Z,99821.30
2023-03-14T09:13:17.104Z,99819.80
2023-03-14T09:15:57.881Z,99829.33
2023-03-14T09:18:30.760Z,99818.02
2023-03-14T09:21:03.510Z,99814.43
2023-03-14T09:23:36.166Z,99813.77
2023-03-14T09:26:08.881Z,99803.16
2023-03-14T09:28:42.030Z,99832.34
2023-03-14T09:31:14.772Z,99809.83
2023-03-14T09:33:47.688Z,99809.51
2023-03-14T09:36:20.306Z,99819.77
2023-03-14T09:38:53.083Z,99806.44
2023-03-14T09:41:39.254Z,99841.08
2023-03-14T09:44:25.142Z,99808.27
2023-03-14T09:50:07.035Z,99789.80
2023-03-14T09:52:41.014Z,99775.20
2023-03-14T09:55:36.646Z,99812.41
2023-03-14T09:58:18.553Z,99797.30
2023-03-14T10:00:54.166Z,99786.84
2023-03-14T10:03:34.156Z,99773.50
2023-03-14T10:06:11.630Z,99787.99
2023-03-14T10:08:45.390Z,99773.99
2023-03-14T10:11:20.606Z,99767.50
2023-03-14T10:14:13.305Z,99765.71
2023-03-14T10:16:47.558Z,99759.78
2023-03-14T10:19:20.969Z,99739.97
2023-03-14T10:21:55.578Z,99747.59
2023-03-14T10:24:29.964Z,99752.48
2023-03-14T10:27:31.443Z,99764.30
2023-03-14T10:30:09.642Z,99750.05
2023-03-14T10:32:43.409Z,99745.59
2023-03-14T10:35:23.014Z,99767.99
2023-03-14T10:37:58.792Z,99763.01
2023-03-14T10:40:36.486Z,99723.05
2023-03-14T10:43:11.779Z,99733.13
2023-03-14T10:45:46.241Z,99732.05
2023-03-14T10:48:33.851Z,99717.65
2023-03-14T10:51:13.152Z,99699.59
2023-03-14T10:54:00.251Z,99713.23
2023-03-14T10:56:38.475Z,99703.14
2023-03-14T10:59:15.961Z,99708.45
2023-03-14T11:02:22.858Z,99722.73
2023-03-14T11:05:19.601Z,99722.52
2023-03-14T11:07:52.890Z,99699.03
2023-03-14T11:10:56.268Z,99694.16
2023-03-14T11:13:36.722Z,99698.94
2023-03-14T11:16:31.266Z,99690.23
2023-03-14T11:19:57.357Z,99689.53
2023-03-14T11:23:15.577Z,99695.25
2023-03-14T11:26:11.829Z,99690.48
2023-03-14T11:28:51.491Z,99687.52
2023-03-14T11:31:38.217Z,99673.95
2023-03-14T11:34:28.272Z,99678.89
2023-03-14T11:37:10.941Z,99664.80
2023-03-14T11:42:46.540Z,99658.87
2023-03-14T11:45:24.462Z,99661.26
2023-03-14T11:48:05.779Z,99660.06
2023-03-14T11:50:38.599Z,99649.86
2023-03-14T11:53:42.763Z,99655.84
2023-03-14T11:56:31.919Z,99652.92
2023-03-14T11:59:29.330Z,99663.84
2023-03-14T12:02:07.788Z,99644.50
2023-03-14T12:05:01.449Z,99648.70
2023-03-14T12:07:54.063Z,99653.16
2023-03-14T12:10:28.363Z,99672.12
2023-03-14T12:13:01.065Z,99705.73
2023-03-14T12:15:35.755Z,99635.45
2023-03-14T12:18:21.372Z,99638.97
2023-03-14T12:21:03.733Z,99645.42
2023-03-14T12:23:53.464Z,99647.28
2023-03-14T12:26:35.744Z,99647.16
2023-03-14T12:29:12.377Z,99640.36
2023-03-14T12:31:50.977Z,99644.09
2023-03-14T12:34:28.289Z,99641.70
2023-03-14T12:37:20.580Z,99635.24
2023-03-14T12:40:18.730Z,99641.71
2023-03-14T12:43:00.940Z,99654.33
2023-03-14T12:45:34.663Z,99646.79
2023-03-14T12:48:25.248Z,99636.89
2023-03-14T12:51:06.772Z,99623.92
2023-03-14T12:53:50.256Z,99632.55
2023-03-14T12:57:00.790Z,99631.52
2023-03-14T12:59:49.621Z,99613.66
2023-03-14T13:02:28.528Z,99631.36
2023-03-14T13:05:09.062Z,99641.42
2023-03-14T13:07:53.686Z,99631.68
2023-03-14T13:10:37.941Z,99620.24
2023-03-14T13:13:28.250Z,99614.63
2023-03-14T13:16:06.156Z,99626.55
2023-03-14T13:18:45.939Z,99626.70
2023-03-14T13:21:26.723Z,99612.94
2023-03-14T13:24:04.935Z,99617.35
2023-03-14T13:26:44.625Z,99588.93
2023-03-14T13:29:29.581Z,99606.47
2023-03-14T13:32:06.591Z,99598.99
2023-03-14T13:34:39.268Z,99585.71
2023-03-14T13:37:24.512Z,99600.69
2023-03-14T13:39:59.837Z,99582.48
2023-03-14T13:42:38.637Z,99586.20
2023-03-14T13:45:19.573Z,99578.20
2023-03-14T13:47:53.466Z,99581.25
2023-03-14T13:50:26.049Z,99581.57
2023-03-14T13:52:59.474Z,99570.98
2023-03-14T13:55:34.036Z,99570.48
2023-03-14T13:58:11.034Z,99576.74
2023-03-14T14:00:44.156Z,99564.48
2023-03-14T14:03:16.906Z,99568.20
2023-03-14T14:05:49.367Z,99570.91
2023-03-14T14:08:22.542Z,99567.16
2023-03-14T14:11:02.119Z,99562.36
2023-03-14T14:13:36.254Z,99542.64
2023-03-14T14:16:09.929Z,99549.08
2023-03-14T14:18:45.375Z,99559.95
2023-03-14T14:21:18.436Z,99548.23
2023-03-14T14:23:51.141Z,99545.47
2023-03-14T14:26:23.571Z,99539.20
2023-03-14T14:29:07.318Z,99532.03
2023-03-14T14:31:40.238Z,99526.09
2023-03-14T14:34:21.862Z,99539.14
2023-03-14T14:36:54.495Z,99528.11
2023-03-14T14:39:30.178Z,99530.35
2023-03-14T14:42:04.084Z,99534.98
2023-03-14T14:44:37.671Z,99526.00
2023-03-14T14:47:15.311Z,99524.64
2023-03-14T14:49:48.974Z,99518.70
2023-03-14T14:52:33.804Z,99519.20
2023-03-14T14:55:15.309Z,99507.61
2023-03-14T14:57:58.268Z,99517.13
2023-03-14T15:00:31.567Z,99515.23
2023-03-14T15:03:04.342Z,99516.41
2023-03-14T15:05:38.166Z,99525.56
2023-03-14T15:08:14.918Z,99517.55
2023-03-14T15:10:47.367Z,99509.03
2023-03-14T15:13:20.132Z,99515.44
2023-03-14T15:15:59.541Z,99517.94
2023-03-14T15:18:32.864Z,99519.44
2023-03-14T15:21:05.757Z,99520.45
2023-03-14T15:23:38.790Z,99515.44
2023-03-14T15:26:19.980Z,99506.23
2023-03-14T15:28:52.981Z,99515.06
2023-03-14T15:31:25.485Z,99523.16
2023-03-14T15:33:57.952Z,99512.96
2023-03-14T15:36:33.205Z,99520.72
2023-03-14T15:39:07.903Z,99524.28
2023-03-14T15:41:40.395Z,99525.73
2023-03-14T15:44:12.863Z,99534.20
2023-03-14T15:46:45.485Z,99525.04
2023-03-14T15:49:18.021Z,99538.53
2023-03-14T15:51:51.127Z,99528.29
2023-03-14T15:54:23.785Z,99536.23
2023-03-14T15:56:57.348Z,99542.98
2023-03-14T15:59:30.803Z,99532.93
2023-03-14T16:02:04.536Z,99535.27
2023-03-14T16:04:37.148Z,99545.92
2023-03-14T16:07:10.142Z,99533.85
2023-03-14T16:09:43.287Z,99546.75
2023-03-14T16:12:16.708Z,99539.56
2023-03-14T16:14:50.738Z,99548.53
2023-03-14T16:17:23.118Z,99544.20
2023-03-14T16:22:41.236Z,99537.51
2023-03-14T16:25:14.039Z,99542.72
2023-03-14T16:27:46.731Z,99539.97
2023-03-14T16:30:20.864Z,99531.64
2023-03-14T16:32:53.568Z,99535.14
2023-03-14T16:35:26.190Z,99527.65
2023-03-14T16:38:02.369Z,99531.30
2023-03-14T16:40:35.518Z,99528.03
2023-03-14T16:43:15.938Z,99512.58
2023-03-14T16:45:43.233Z,99506.45
2023-03-14T16:48:15.904Z,99509.31
2023-03-14T16:50:51.477Z,99519.63
2023-03-14T16:53:27.102Z,99527.05
2023-03-14T16:56:00.739Z,99506.86
2023-03-14T16:58:34.913Z,99510.39
2023-03-14T17:01:12.979Z,99507.98
2023-03-14T17:03:48.501Z,99518.11
2023-03-14T17:06:26.493Z,99504.06
2023-03-14T17:08:59.885Z,99495.22
2023-03-14T17:11:34.205Z,99504.52
2023-03-14T17:14:08.139Z,99506.17
2023-03-14T17:16:40.932Z,99504.47
2023-03-14T17:19:14.922Z,99512.91
2023-03-14T17:21:48.715Z,99509.97
2023-03-14T17:24:21.808Z,99510.98
2023-03-14T17:26:54.483Z,99526.71
2023-03-14T17:29:27.390Z,99521.59
2023-03-14T17:31:59.950Z,99508.03
2023-03-14T17:34:32.654Z,99512.89
2023-03-14T17:37:05.318Z,99511.98
2023-03-14T17:39:39.862Z,99498.09
2023-03-14T17:42:12.579Z,99501.44
2023-03-14T17:44:46.322Z,99495.33
2023-03-14T17:47:20.686Z,99502.45
2023-03-14T17:49:55.350Z,99511.06
2023-03-14T17:52:28.074Z,99496.69
2023-03-14T17:55:01.445Z,99502.74
2023-03-14T17:57:42.769Z,99500.18
2023-03-14T18:00:17.389Z,99522.01
2023-03-14T18:02:50.092Z,99516.92
2023-03-14T18:05:23.548Z,99511.17
2023-03-14T18:07:57.085Z,99519.10
2023-03-14T18:10:30.634Z,99542.63
2023-03-14T18:13:03.318Z,99515.67
2023-03-14T18:15:35.731Z,99517.89
2023-03-14T18:18:09.346Z,99532.80
2023-03-14T18:20:43.314Z,99534.45
2023-03-14T18:23:15.732Z,99543.70
2023-03-14T18:25:50.243Z,99547.38
2023-03-14T18:28:23.750Z,99543.70
2023-03-14T18:31:07.365Z,99540.27
2023-03-14T18:33:42.412Z,99535.66
2023-03-14T18:36:17.349Z,99527.11
2023-03-14T18:38:53.136Z,99540.80
2023-03-14T18:41:26.673Z,99548.06
2023-03-14T18:44:00.620Z,99544.80
2023-03-14T18:46:34.142Z,99548.30
2023-03-14T18:49:10.590Z,99530.63
2023-03-14T18:51:44.615Z,99531.27
2023-03-14T18:54:20.043Z,99554.58
2023-03-14T18:56:53.734Z,99554.89
2023-03-14T18:59:26.714Z,99532.17
2023-03-14T19:02:00.862Z,99522.31
2023-03-14T19:04:35.145Z,99522.98
2023-03-14T19:07:10.390Z,99530.04
2023-03-14T19:09:43.271Z,99552.99
2023-03-14T19:12:18.332Z,99521.14
2023-03-14T19:14:53.022Z,99515.00
2023-03-14T19:17:26.679Z,99513.59
2023-03-14T19:19:59.272Z,99513.24
2023-03-14T19:22:32.731Z,99515.23
2023-03-14T19:25:06.927Z,99522.28
2023-03-14T19:27:40.906Z,99512.02
2023-03-14T19:30:13.839Z,99520.95
2023-03-14T19:32:46.497Z,99521.87
2023-03-14T19:35:19.216Z,99507.13
2023-03-14T19:37:51.920Z,99513.34
2023-03-14T19:40:24.442Z,99520.87
2023-03-14T19:42:57.688Z,99523.52
2023-03-14T19:45:36.710Z,99530.08
2023-03-14T19:48:08.826Z,99520.23
2023-03-14T19:50:43.674Z,99513.55
2023-03-14T19:53:16.805Z,99521.17
2023-03-14T19:55:50.470Z,99534.84
2023-03-14T19:58:24.800Z,99525.30
2023-03-14T20:00:58.935Z,99531.48
2023-03-14T20:03:32.661Z,99533.25
2023-03-14T20:06:12.592Z,99556.38
2023-03-14T20:08:45.495Z,99549.69
2023-03-14T20:11:19.363Z,99543.13
2023-03-14T20:13:53.963Z,99542.33
2023-03-14T20:16:27.218Z,99546.73
2023-03-14T20:18:59.968Z,99540.28
2023-03-14T20:21:32.980Z,99538.83
2023-03-14T20:24:06.940Z,99539.77
2023-03-14T20:26:40.764Z,99540.31
2023-03-14T20:29:15.098Z,99537.53
2023-03-14T20:31:47.770Z,99554.86
2023-03-14T20:34:20.274Z,99547.54
2023-03-14T20:36:55.431Z,99536.27
2023-03-14T20:39:28.528Z,99528.30
2023-03-14T20:42:01.604Z,99525.25
2023-03-14T20:44:36.442Z,99523.17
2023-03-14T20:47:09.345Z,99516.72
2023-03-14T20:49:43.275Z,99518.69
2023-03-14T20:52:15.859Z,99518.02
2023-03-14T20:54:48.292Z,99518.02
2023-03-14T20:57:21.322Z,99511.40
2023-03-14T20:59:54.199Z,99513.02
2023-03-14T21:02:27.254Z,99506.51
2023-03-14T21:05:00.235Z,99519.80
2023-03-14T21:07:38.276Z,99513.94
2023-03-14T21:10:33.373Z,99518.29
2023-03-14T21:13:06.368Z,99516.83
2023-03-14T21:15:39.673Z,99524.84
2023-03-14T21:18:12.395Z,99520.84
2023-03-14T21:20:45.470Z,99542.58
2023-03-14T21:23:19.085Z,99541.14
2023-03-14T21:25:52.360Z,99553.05
2023-03-14T21:28:25.907Z,99552.83
2023-03-14T21:31:07.410Z,99549.77
2023-03-14T21:33:40.226Z,99545.86
2023-03-14T21:36:13.039Z,99555.09
2023-03-14T21:38:45.641Z,99554.00
2023-03-14T21:41:18.108Z,99560.27
2023-03-14T21:43:51.398Z,99549.04
2023-03-14T21:46:26.132Z,99564.98
2023-03-14T21:48:58.605Z,99556.09
2023-03-14T21:51:32.757Z,99562.31
2023-03-14T21:54:06.896Z,99571.41
2023-03-14T21:56:39.781Z,99571.32
2023-03-14T21:59:14.569Z,99563.83
2023-03-14T22:01:47.627Z,99562.39
2023-03-14T22:04:22.009Z,99574.80
2023-03-14T22:06:54.170Z,99568.44
2023-03-14T22:09:26.664Z,99563.42
2023-03-14T22:12:00.672Z,99553.15
2023-03-14T22:14:33.452Z,99579.90
2023-03-14T22:17:06.196Z,99568.89
2023-03-14T22:19:39.375Z,99566.80
2023-03-14T22:22:12.105Z,99564.10
2023-03-14T22:24:45.040Z,99555.05
2023-03-14T22:27:17.817Z,99565.70
2023-03-14T22:29:50.139Z,99565.00
2023-03-14T22:32:23.229Z,99585.48
2023-03-14T22:34:55.556Z,99565.86
2023-03-14T22:37:28.130Z,99571.35
2023-03-14T22:40:00.462Z,99572.34
2023-03-14T22:42:33.090Z,99566.86
2023-03-14T22:45:07.371Z,99565.77
2023-03-14T22:47:39.822Z,99572.28
2023-03-14T22:50:13.496Z,99564.56
2023-03-14T22:52:46.044Z,99567.39
2023-03-14T22:55:18.605Z,99563.38
2023-03-14T22:57:53.811Z,99566.32
2023-03-14T23:00:27.134Z,99544.27
2023-03-14T23:03:01.078Z,99544.63
2023-03-14T23:05:34.420Z,99550.01
2023-03-14T23:08:07.045Z,99539.87
2023-03-14T23:10:40.781Z,99545.27
2023-03-14T23:13:16.437Z,99548.95
2023-03-14T23:15:49.488Z,99552.00
2023-03-14T23:18:24.767Z,99535.47
2023-03-14T23:21:13.134Z,99552.48
2023-03-14T23:23:48.255Z,99537.67
2023-03-14T23:26:24.125Z,99531.95
2023-03-14T23:28:57.285Z,99527.30
2023-03-14T23:31:30.259Z,99534.41
2023-03-14T23:34:02.847Z,99537.36
2023-03-14T23:39:19.775Z,99526.84
2023-03-14T23:41:52.179Z,99530.78
2023-03-14T23:44:26.978Z,99521.25
2023-03-14T23:46:59.385Z,99524.90
2023-03-14T23:49:31.883Z,99518.91
2023-03-14T23:52:04.948Z,99518.16
2023-03-14T23:54:39.040Z,99514.38
2023-03-14T23:57:11.540Z,99511.68
2023-03-14T23:59:44.593Z,99519.41
